createdAt,value
2022-08-04T00:00:31.934Z,60.54
2022-08-04T00:03:24.537Z,63.61
2022-08-04T00:06:05.389Z,57.72
2022-08-04T00:08:47.013Z,62.83
2022-08-04T00:11:23.505Z,62.58
2022-08-04T00:14:03.147Z,62.47
2022-08-04T00:16:38.774Z,61.88
2022-08-04T00:19:16.837Z,64.60
2022-08-04T00:21:52.088Z,65.03
2022-08-04T00:24:21.861Z,64.51
2022-08-04T00:26:49.531Z,64.07
2022-08-04T00:29:17.137Z,64.90
2022-08-04T00:31:56.258Z,64.23
2022-08-04T00:34:30.174Z,66.02
2022-08-04T00:36:58.814Z,63.63
2022-08-04T00:39:27.576Z,63.71
2022-08-04T00:42:13.441Z,67.31
2022-08-04T00:44:56.010Z,62.84
2022-08-04T00:47:41.607Z,65.80
2022-08-04T00:50:32.370Z,66.56
2022-08-04T00:53:19.156Z,66.32
2022-08-04T00:56:07.621Z,67.43
2022-08-04T00:58:52.610Z,64.28
2022-08-04T01:01:37.083Z,65.63
2022-08-04T01:04:15.061Z,63.75
2022-08-04T01:07:07.533Z,61.03
2022-08-04T01:09:55.361Z,65.25
2022-08-04T01:12:31.712Z,63.06
2022-08-04T01:15:18.476Z,63.39
2022-08-04T01:18:06.700Z,62.20
2022-08-04T01:21:01.804Z,62.09
2022-08-04T01:24:01.658Z,61.88
2022-08-04T01:26:57.673Z,61.72
2022-08-04T01:29:47.035Z,61.21
2022-08-04T01:32:37.315Z,60.73
2022-08-04T01:35:04.992Z,58.52
2022-08-04T01:37:48.074Z,61.26
2022-08-04T01:40:16.493Z,57.18
2022-08-04T01:42:46.177Z,58.51
2022-08-04T01:45:14.773Z,58.33
2022-08-04T01:47:54.497Z,59.58
2022-08-04T01:50:23.252Z,57.94
2022-08-04T01:52:54.232Z,59.15
2022-08-04T01:55:22.851Z,57.60
2022-08-04T01:57:53.666Z,58.98
2022-08-04T02:00:23.769Z,58.33
2022-08-04T02:02:51.807Z,57.56
2022-08-04T02:05:21.862Z,58.51
2022-08-04T02:08:04.932Z,58.58
2022-08-04T02:10:38.216Z,55.93
2022-08-04T02:13:22.238Z,56.34
2022-08-04T02:15:58.278Z,56.79
2022-08-04T02:18:49.657Z,57.06
2022-08-04T02:21:20.934Z,57.25
2022-08-04T02:24:03.280Z,56.37
2022-08-04T02:26:33.927Z,55.95
2022-08-04T02:29:04.577Z,54.68
2022-08-04T02:31:38.838Z,54.92
2022-08-04T02:34:10.271Z,54.98
2022-08-04T02:36:40.727Z,54.09
2022-08-04T02:39:10.525Z,53.55
2022-08-04T02:41:40.475Z,53.50
2022-08-04T02:44:10.735Z,52.82
2022-08-04T02:46:42.191Z,51.99
2022-08-04T02:49:11.532Z,52.00
2022-08-04T02:51:43.552Z,51.77
2022-08-04T02:54:15.679Z,50.52
2022-08-04T02:57:00.366Z,49.03
2022-08-04T02:59:30.475Z,45.20
2022-08-04T03:01:58.470Z,42.93
2022-08-04T03:04:50.679Z,42.11
2022-08-04T03:07:43.985Z,39.54
2022-08-04T03:10:36.014Z,37.31
2022-08-04T03:13:23.491Z,34.08
2022-08-04T03:16:12.992Z,33.58
2022-08-04T03:18:55.858Z,32.09
2022-08-04T03:21:50.751Z,30.79
2022-08-04T03:24:55.702Z,29.72
2022-08-04T03:27:43.726Z,27.73
2022-08-04T03:30:18.224Z,26.97
2022-08-04T03:33:01.696Z,26.50
2022-08-04T03:35:46.025Z,26.04
2022-08-04T03:38:57.096Z,25.70
2022-08-04T03:41:51.624Z,24.20
2022-08-04T03:45:01.689Z,22.48
2022-08-04T03:47:45.173Z,22.70
2022-08-04T03:50:13.353Z,21.66
2022-08-04T03:52:59.214Z,21.31
2022-08-04T03:55:47.656Z,21.42
2022-08-04T03:58:36.543Z,20.19
2022-08-04T04:01:11.760Z,20.72
2022-08-04T04:03:48.357Z,20.25
2022-08-04T04:06:31.270Z,21.07
2022-08-04T04:10:01.178Z,20.85
2022-08-04T04:12:51.923Z,19.29
2022-08-04T04:15:49.946Z,19.51
2022-08-04T04:18:55.028Z,19.33
2022-08-04T04:21:43.814Z,17.96
2022-08-04T04:24:41.191Z,17.75
2022-08-04T04:27:45.765Z,17.90
2022-08-04T04:30:19.980Z,16.67
2022-08-04T04:33:33.031Z,16.90
2022-08-04T04:36:18.629Z,16.27
2022-08-04T04:39:04.838Z,17.68
2022-08-04T04:41:48.401Z,15.97
2022-08-04T04:44:52.697Z,16.48
2022-08-04T04:48:08.661Z,15.64
2022-08-04T04:50:58.979Z,15.32
2022-08-04T04:53:44.991Z,14.86
2022-08-04T04:56:25.960Z,15.54
2022-08-04T04:58:55.933Z,15.14
2022-08-04T05:01:45.137Z,14.73
2022-08-04T05:04:24.666Z,14.77
2022-08-04T05:07:22.683Z,14.30
2022-08-04T05:10:40.542Z,15.66
2022-08-04T05:14:34.916Z,13.85
2022-08-04T05:16:16.470Z,13.24
2022-08-04T05:18:55.044Z,12.82
2022-08-04T05:21:43.370Z,13.69
2022-08-04T05:24:13.741Z,13.02
2022-08-04T05:26:46.438Z,12.48
2022-08-04T05:29:25.156Z,12.65
2022-08-04T05:32:05.219Z,12.75
2022-08-04T05:34:39.659Z,12.57
2022-08-04T05:37:15.286Z,12.52
2022-08-04T05:39:54.344Z,12.42
2022-08-04T05:42:23.458Z,12.32
2022-08-04T05:44:52.082Z,12.28
2022-08-04T05:47:22.487Z,12.48
2022-08-04T05:50:01.426Z,12.37
2022-08-04T05:52:32.799Z,11.84
2022-08-04T05:55:01.984Z,12.45
2022-08-04T05:57:32.110Z,11.97
2022-08-04T06:00:25.302Z,12.31
2022-08-04T06:02:53.183Z,12.28
2022-08-04T06:05:21.005Z,11.73
2022-08-04T06:08:12.692Z,11.73
2022-08-04T06:10:40.345Z,11.52
2022-08-04T06:13:48.317Z,11.66
2022-08-04T06:16:02.170Z,11.89
2022-08-04T06:18:33.398Z,11.48
2022-08-04T06:21:23.097Z,11.70
2022-08-04T06:23:53.751Z,11.47
2022-08-04T06:26:28.177Z,11.62
2022-08-04T06:28:57.522Z,10.96
2022-08-04T06:32:31.311Z,11.11
2022-08-04T06:34:33.496Z,11.36
2022-08-04T06:37:01.362Z,11.43
2022-08-04T06:39:32.454Z,10.83
2022-08-04T06:42:17.071Z,10.82
2022-08-04T06:44:58.081Z,10.49
2022-08-04T06:47:26.766Z,10.60
2022-08-04T06:51:26.619Z,10.26
2022-08-04T06:52:46.216Z,10.11
2022-08-04T06:55:13.919Z,10.47
2022-08-04T06:57:43.411Z,10.66
2022-08-04T07:00:14.933Z,11.05
2022-08-04T07:02:51.121Z,10.47
2022-08-04T07:05:20.240Z,10.48
2022-08-04T07:07:56.977Z,10.69
2022-08-04T07:10:30.762Z,9.96
2022-08-04T07:13:00.051Z,10.48
2022-08-04T07:15:29.988Z,10.40
2022-08-04T07:18:03.204Z,10.31
2022-08-04T07:20:35.657Z,10.41
2022-08-04T07:23:08.187Z,10.35
2022-08-04T07:25:58.679Z,10.07
2022-08-04T07:28:33.430Z,10.33
2022-08-04T07:31:02.990Z,10.43
2022-08-04T07:33:30.955Z,10.36
2022-08-04T07:36:09.923Z,10.81
2022-08-04T07:38:48.533Z,10.64
2022-08-04T07:41:40.652Z,10.81
2022-08-04T07:44:09.720Z,11.66
2022-08-04T07:46:37.745Z,11.59
2022-08-04T07:49:06.435Z,11.89
2022-08-04T07:51:36.128Z,12.24
2022-08-04T07:54:05.599Z,12.72
2022-08-04T07:56:38.013Z,12.67
2022-08-04T07:59:07.015Z,12.65
2022-08-04T08:01:38.218Z,13.31
2022-08-04T08:04:07.912Z,13.13
2022-08-04T08:06:42.598Z,13.02
2022-08-04T08:09:21.526Z,12.98
2022-08-04T08:12:37.748Z,13.18
2022-08-04T08:14:39.171Z,13.44
2022-08-04T08:17:07.277Z,13.79
2022-08-04T08:19:36.374Z,13.75
2022-08-04T08:22:05.061Z,13.87
2022-08-04T08:24:36.397Z,13.53
2022-08-04T08:27:05.112Z,14.06
2022-08-04T08:29:34.878Z,14.20
2022-08-04T08:32:08.222Z,13.95
2022-08-04T08:34:38.027Z,13.87
2022-08-04T08:37:16.737Z,13.45
2022-08-04T08:39:54.581Z,13.54
2022-08-04T08:42:37.812Z,13.94
2022-08-04T08:45:07.989Z,14.52
2022-08-04T08:48:05.758Z,14.81
2022-08-04T08:51:25.105Z,14.01
2022-08-04T08:54:11.164Z,14.89
2022-08-04T08:57:06.235Z,14.90
2022-08-04T09:00:02.185Z,14.85
2022-08-04T09:02:45.694Z,15.00
2022-08-04T09:05:31.797Z,15.75
2022-08-04T09:08:23.519Z,15.66
2022-08-04T09:10:57.301Z,16.20
2022-08-04T09:13:34.435Z,16.29
2022-08-04T09:16:23.481Z,15.96
2022-08-04T09:18:53.909Z,16.34
2022-08-04T09:21:39.655Z,16.50
2022-08-04T09:24:34.737Z,16.63
2022-08-04T09:27:11.432Z,17.09
2022-08-04T09:29:52.929Z,17.27
2022-08-04T09:32:38.654Z,16.99
2022-08-04T09:35:36.698Z,17.44
2022-08-04T09:38:13.775Z,17.46
2022-08-04T09:40:53.265Z,17.96
2022-08-04T09:43:57.077Z,17.73
2022-08-04T09:46:47.324Z,18.19
2022-08-04T09:49:23.683Z,18.69
2022-08-04T09:51:59.830Z,18.82
2022-08-04T09:54:51.359Z,18.09
2022-08-04T09:57:56.723Z,17.99
2022-08-04T10:00:40.869Z,18.03
2022-08-04T10:03:17.453Z,18.19
2022-08-04T10:06:05.171Z,18.42
2022-08-04T10:09:00.347Z,18.55
2022-08-04T10:11:55.479Z,18.71
2022-08-04T10:14:51.922Z,18.79
2022-08-04T10:17:53.347Z,18.81
2022-08-04T10:20:54.104Z,18.95
2022-08-04T10:23:56.421Z,19.44
2022-08-04T10:26:29.864Z,19.66
2022-08-04T10:29:05.149Z,20.04
2022-08-04T10:31:54.373Z,19.94
2022-08-04T10:34:26.718Z,20.19
2022-08-04T10:37:05.230Z,20.16
2022-08-04T10:40:11.980Z,19.78
2022-08-04T10:42:47.367Z,20.24
2022-08-04T10:45:22.681Z,20.18
2022-08-04T10:48:06.110Z,20.46
2022-08-04T10:50:43.024Z,20.64
2022-08-04T10:53:17.656Z,20.76
2022-08-04T10:56:05.561Z,21.27
2022-08-04T10:58:48.253Z,20.72
2022-08-04T11:02:01.198Z,21.01
2022-08-04T11:04:36.892Z,20.41
2022-08-04T11:07:04.945Z,20.99
2022-08-04T11:09:34.425Z,20.69
2022-08-04T11:12:15.873Z,20.66
2022-08-04T11:14:52.249Z,20.31
2022-08-04T11:17:27.726Z,20.59
2022-08-04T11:20:35.151Z,20.42
2022-08-04T11:23:05.680Z,20.78
2022-08-04T11:25:59.051Z,20.45
2022-08-04T11:28:56.058Z,20.33
2022-08-04T11:31:39.707Z,20.51
2022-08-04T11:34:23.643Z,20.61
2022-08-04T11:37:48.409Z,20.32
2022-08-04T11:40:25.368Z,20.57
2022-08-04T11:42:57.444Z,21.06
2022-08-04T11:45:51.743Z,21.06
2022-08-04T11:49:02.751Z,21.04
2022-08-04T11:51:31.796Z,20.80
2022-08-04T11:54:01.078Z,21.54
2022-08-04T11:56:36.509Z,21.57
2022-08-04T11:59:10.569Z,21.26
2022-08-04T12:01:43.835Z,21.33
2022-08-04T12:04:23.226Z,21.50
2022-08-04T12:09:59.977Z,21.41
2022-08-04T12:12:47.567Z,21.88
2022-08-04T12:15:33.259Z,21.70
2022-08-04T12:18:26.894Z,21.94
2022-08-04T12:21:02.624Z,22.04
2022-08-04T12:23:40.503Z,21.75
2022-08-04T12:26:23.708Z,21.90
2022-08-04T12:29:13.812Z,22.21
2022-08-04T12:31:46.035Z,22.47
2022-08-04T12:34:44.583Z,21.84
2022-08-04T12:37:34.007Z,22.47
2022-08-04T12:40:27.385Z,22.34
2022-08-04T12:43:23.672Z,22.26
2022-08-04T12:45:54.106Z,22.46
2022-08-04T12:48:24.421Z,22.64
2022-08-04T12:50:57.291Z,22.51
2022-08-04T12:53:32.831Z,23.10
2022-08-04T12:56:02.615Z,22.69
2022-08-04T12:58:42.261Z,23.03
2022-08-04T13:02:06.975Z,23.14
2022-08-04T13:04:24.518Z,23.79
2022-08-04T13:07:16.161Z,23.34
2022-08-04T13:09:44.413Z,23.93
2022-08-04T13:12:26.009Z,24.24
2022-08-04T13:15:19.292Z,24.25
2022-08-04T13:17:59.444Z,23.59
2022-08-04T13:20:32.658Z,23.78
2022-08-04T13:23:09.009Z,24.44
2022-08-04T13:26:43.303Z,24.03
2022-08-04T13:28:34.752Z,24.20
2022-08-04T13:31:06.474Z,24.30
2022-08-04T13:33:38.471Z,25.41
2022-08-04T13:36:08.444Z,25.86
2022-08-04T13:38:40.218Z,26.32
2022-08-04T13:41:09.368Z,26.58
2022-08-04T13:44:19.132Z,26.64
2022-08-04T13:46:59.114Z,25.91
2022-08-04T13:49:42.473Z,26.85
2022-08-04T13:52:14.181Z,26.98
2022-08-04T13:54:45.237Z,26.98
2022-08-04T13:57:28.037Z,27.75
2022-08-04T14:00:00.048Z,27.40
2022-08-04T14:02:43.614Z,27.36
2022-08-04T14:05:27.977Z,27.59
2022-08-04T14:08:08.092Z,27.98
2022-08-04T14:10:37.235Z,28.50
2022-08-04T14:13:07.412Z,28.41
2022-08-04T14:16:02.908Z,27.91
2022-08-04T14:18:32.920Z,28.87
2022-08-04T14:21:10.940Z,28.52
2022-08-04T14:23:49.348Z,28.92
2022-08-04T14:26:35.911Z,29.09
2022-08-04T14:29:26.789Z,29.24
2022-08-04T14:32:13.029Z,29.82
2022-08-04T14:34:45.125Z,29.69
2022-08-04T14:37:18.607Z,29.50
2022-08-04T14:40:17.529Z,30.29
2022-08-04T14:42:54.949Z,30.52
2022-08-04T14:45:55.053Z,30.38
2022-08-04T14:48:25.226Z,30.40
2022-08-04T14:50:52.886Z,30.62
2022-08-04T14:53:23.217Z,30.98
2022-08-04T14:55:57.202Z,31.21
2022-08-04T14:58:37.714Z,31.26
2022-08-04T15:01:10.550Z,31.50
2022-08-04T15:03:50.654Z,29.49
2022-08-04T15:06:26.557Z,31.45
2022-08-04T15:08:57.089Z,31.55
2022-08-04T15:11:25.186Z,31.06
2022-08-04T15:13:53.829Z,31.27
2022-08-04T15:16:23.766Z,31.37
2022-08-04T15:18:52.771Z,31.13
2022-08-04T15:21:26.155Z,31.37
2022-08-04T15:23:53.752Z,31.29
2022-08-04T15:26:43.511Z,30.89
2022-08-04T15:30:00.135Z,31.11
2022-08-04T15:32:39.467Z,29.75
2022-08-04T15:35:12.738Z,31.34
2022-08-04T15:37:44.888Z,31.12
2022-08-04T15:40:33.412Z,31.31
2022-08-04T15:43:18.541Z,31.53
2022-08-04T15:46:02.056Z,32.18
2022-08-04T15:48:40.090Z,31.70
2022-08-04T15:51:14.677Z,31.67
2022-08-04T15:54:02.479Z,31.69
2022-08-04T15:56:30.391Z,31.70
2022-08-04T15:58:58.023Z,31.95
2022-08-04T16:01:27.871Z,31.54
2022-08-04T16:04:00.230Z,31.99
2022-08-04T16:06:30.480Z,32.29
2022-08-04T16:09:00.437Z,32.13
2022-08-04T16:11:33.114Z,32.65
2022-08-04T16:14:03.417Z,32.49
2022-08-04T16:16:47.055Z,32.97
2022-08-04T16:19:35.350Z,33.02
2022-08-04T16:22:04.764Z,33.29
2022-08-04T16:24:37.462Z,34.00
2022-08-04T16:27:06.577Z,33.56
2022-08-04T16:29:41.604Z,34.19
2022-08-04T16:32:36.667Z,33.89
2022-08-04T16:35:18.064Z,33.80
2022-08-04T16:37:45.539Z,33.77
2022-08-04T16:40:38.897Z,33.72
2022-08-04T16:43:09.827Z,33.55
2022-08-04T16:45:49.570Z,33.81
2022-08-04T16:48:22.831Z,33.83
2022-08-04T16:51:04.760Z,33.56
2022-08-04T16:54:02.962Z,33.40
2022-08-04T16:56:30.157Z,33.76
2022-08-04T16:59:07.671Z,34.11
2022-08-04T17:01:35.745Z,33.55
2022-08-04T17:04:05.671Z,33.83
2022-08-04T17:06:51.705Z,33.59
2022-08-04T17:09:23.311Z,33.42
2022-08-04T17:11:54.147Z,34.07
2022-08-04T17:14:23.516Z,34.12
2022-08-04T17:16:51.939Z,34.21
2022-08-04T17:19:25.066Z,34.13
2022-08-04T17:22:07.624Z,34.36
2022-08-04T17:24:41.253Z,34.62
2022-08-04T17:28:06.185Z,34.66
2022-08-04T17:29:58.402Z,34.49
2022-08-04T17:32:26.139Z,34.67
2022-08-04T17:34:57.429Z,35.31
2022-08-04T17:37:51.899Z,34.89
2022-08-04T17:40:18.679Z,35.04
2022-08-04T17:44:04.772Z,34.50
2022-08-04T17:46:34.528Z,34.20
2022-08-04T17:49:12.751Z,34.76
2022-08-04T17:52:06.565Z,34.87
2022-08-04T17:54:40.818Z,34.42
2022-08-04T17:57:19.587Z,34.83
2022-08-04T17:59:56.540Z,34.69
2022-08-04T18:02:53.660Z,34.18
2022-08-04T18:08:39.099Z,34.22
2022-08-04T18:11:05.647Z,34.32
2022-08-04T18:13:42.869Z,34.62
2022-08-04T18:16:21.991Z,34.29
2022-08-04T18:19:09.504Z,33.95
2022-08-04T18:21:46.208Z,34.91
2022-08-04T18:24:34.276Z,34.24
2022-08-04T18:27:14.551Z,34.58
2022-08-04T18:30:15.020Z,34.38
2022-08-04T18:32:33.603Z,34.69
2022-08-04T18:35:05.207Z,34.69
2022-08-04T18:40:26.794Z,40.63
2022-08-04T18:43:00.033Z,42.16
2022-08-04T18:45:33.840Z,40.72
2022-08-04T18:48:04.218Z,39.39
2022-08-04T18:51:08.826Z,39.07
2022-08-04T18:53:34.879Z,38.47
2022-08-04T18:56:06.251Z,38.29
2022-08-04T18:58:48.700Z,38.14
2022-08-04T19:01:16.255Z,37.82
2022-08-04T19:03:45.601Z,38.07
2022-08-04T19:06:16.013Z,38.24
2022-08-04T19:08:45.033Z,38.73
2022-08-04T19:11:37.228Z,38.65
2022-08-04T19:14:02.886Z,38.21
2022-08-04T19:16:33.386Z,38.36
2022-08-04T19:19:03.518Z,38.44
2022-08-04T19:21:59.704Z,38.54
2022-08-04T19:24:32.821Z,38.30
2022-08-04T19:27:06.543Z,38.79
2022-08-04T19:29:52.693Z,39.21
2022-08-04T19:32:21.615Z,39.16
2022-08-04T19:34:52.335Z,39.54
2022-08-04T19:37:58.369Z,39.59
2022-08-04T19:40:10.150Z,43.42
2022-08-04T19:42:40.246Z,43.09
2022-08-04T19:45:08.901Z,40.31
2022-08-04T19:48:22.174Z,40.94
2022-08-04T19:50:24.968Z,41.18
2022-08-04T19:52:53.649Z,39.23
2022-08-04T19:58:13.009Z,39.30
2022-08-04T20:00:51.000Z,39.73
2022-08-04T20:03:20.254Z,39.03
2022-08-04T20:05:53.387Z,38.95
2022-08-04T20:08:24.182Z,39.41
2022-08-04T20:10:54.570Z,39.33
2022-08-04T20:13:25.391Z,39.45
2022-08-04T20:15:59.436Z,37.91
2022-08-04T20:18:35.992Z,38.58
2022-08-04T20:21:20.258Z,37.88
2022-08-04T20:23:52.734Z,37.90
2022-08-04T20:26:20.664Z,37.92
2022-08-04T20:28:52.529Z,37.33
2022-08-04T20:31:23.466Z,36.82
2022-08-04T20:33:59.188Z,37.82
2022-08-04T20:36:26.806Z,37.60
2022-08-04T20:38:54.820Z,38.83
2022-08-04T20:41:22.537Z,38.62
2022-08-04T20:43:50.705Z,39.08
2022-08-04T20:46:29.540Z,38.85
2022-08-04T20:48:58.266Z,39.67
2022-08-04T20:51:31.584Z,38.18
2022-08-04T20:54:02.141Z,37.99
2022-08-04T20:56:31.001Z,38.73
2022-08-04T20:59:00.256Z,40.32
2022-08-04T21:01:29.990Z,40.63
2022-08-04T21:04:27.942Z,40.51
2022-08-04T21:07:01.229Z,41.44
2022-08-04T21:09:38.498Z,40.33
2022-08-04T21:12:27.579Z,40.53
2022-08-04T21:14:58.141Z,40.68
2022-08-04T21:17:59.320Z,40.97
2022-08-04T21:20:13.980Z,41.15
2022-08-04T21:22:41.664Z,41.15
2022-08-04T21:25:14.565Z,41.49
2022-08-04T21:27:44.537Z,41.49
2022-08-04T21:30:26.246Z,42.91
2022-08-04T21:33:06.108Z,42.70
2022-08-04T21:35:39.749Z,43.11
2022-08-04T21:38:16.599Z,43.05
2022-08-04T21:40:56.775Z,44.71
2022-08-04T21:43:27.433Z,43.15
2022-08-04T21:46:03.919Z,43.92
2022-08-04T21:48:32.984Z,43.45
2022-08-04T21:51:58.608Z,44.44
2022-08-04T21:54:05.985Z,43.31
2022-08-04T21:56:34.322Z,43.59
2022-08-04T21:59:07.171Z,44.21
2022-08-04T22:01:51.059Z,45.07
2022-08-04T22:04:20.539Z,44.73
2022-08-04T22:06:51.950Z,45.36
2022-08-04T22:09:21.884Z,45.51
2022-08-04T22:11:51.552Z,45.54
2022-08-04T22:14:27.255Z,45.86
2022-08-04T22:16:57.488Z,45.86
2022-08-04T22:19:39.752Z,46.13
2022-08-04T22:22:12.537Z,46.26
2022-08-04T22:24:41.322Z,46.12
2022-08-04T22:27:13.093Z,47.92
2022-08-04T22:29:44.776Z,46.65
2022-08-04T22:32:12.350Z,46.81
2022-08-04T22:34:45.654Z,47.27
2022-08-04T22:37:20.971Z,47.18
2022-08-04T22:40:04.919Z,47.68
2022-08-04T22:42:32.595Z,47.74
2022-08-04T22:45:01.393Z,47.74
2022-08-04T22:47:31.447Z,47.95
2022-08-04T22:50:13.855Z,47.92
2022-08-04T22:52:51.637Z,47.98
2022-08-04T22:55:24.006Z,48.26
2022-08-04T22:58:04.306Z,48.48
2022-08-04T23:00:33.339Z,48.63
2022-08-04T23:03:00.921Z,49.13
2022-08-04T23:05:35.558Z,48.69
2022-08-04T23:08:05.214Z,49.14
2022-08-04T23:10:33.117Z,49.34
2022-08-04T23:13:04.009Z,49.24
2022-08-04T23:15:33.663Z,49.24
2022-08-04T23:18:01.380Z,49.89
2022-08-04T23:20:32.721Z,50.67
2022-08-04T23:23:14.625Z,51.00
2022-08-04T23:26:07.406Z,52.75
2022-08-04T23:28:33.493Z,51.78
2022-08-04T23:31:02.228Z,51.88
2022-08-04T23:33:50.856Z,52.33
2022-08-04T23:36:18.190Z,51.78
2022-08-04T23:38:46.227Z,52.07
2022-08-04T23:41:17.251Z,52.18
2022-08-04T23:43:55.078Z,52.39
2022-08-04T23:46:23.947Z,52.84
2022-08-04T23:48:52.369Z,52.61
2022-08-04T23:51:20.110Z,52.51
2022-08-04T23:54:01.638Z,52.55
2022-08-04T23:56:31.900Z,52.11
2022-08-04T23:59:03.387Z,52.93
